Time;durP1;ratioP1;P1;durP2;ratioP2;P2;SDS_P1;SDS_P2;PMS_P1;PMS_P2;Temp;Humidity;BMP_temperature;BMP_pressure;BME280_temperature;BME280_humidity;BME280_pressure;Samples;Min_cycle;Max_cycle;Signal;HPM_P1;HPM_P2
2022/03/13 00:00:11;;;;;;;26.98;13.70;;;;;;;;;;5060693;28;20033;-61
2022/03/13 00:02:37;;;;;;;27.08;13.18;;;;;;;;;;5052357;28;20147;-61
2022/03/13 00:05:08;;;;;;;28.45;14.40;;;;;;;;;;5059690;28;20032;-59
2022/03/13 00:07:35;;;;;;;28.38;13.00;;;;;;;;;;5056232;28;20104;-61
2022/03/13 00:10:00;;;;;;;27.92;13.30;;;;;;;;;;5056854;28;20033;-61
2022/03/13 00:12:27;;;;;;;24.65;13.90;;;;;;;;;;5060220;28;20372;-62
2022/03/13 00:14:55;;;;;;;25.55;12.02;;;;;;;;;;5057002;28;20041;-61
2022/03/13 00:17:27;;;;;;;25.17;11.68;;;;;;;;;;5053154;28;20055;-61
2022/03/13 00:19:53;;;;;;;26.80;11.38;;;;;;;;;;5060228;28;20029;-60
2022/03/13 00:22:18;;;;;;;22.67;11.52;;;;;;;;;;5061483;28;20451;-61
2022/03/13 00:24:44;;;;;;;23.42;11.30;;;;;;;;;;5066364;28;20463;-60
2022/03/13 00:27:09;;;;;;;21.52;10.80;;;;;;;;;;5059479;28;20036;-62
2022/03/13 00:29:36;;;;;;;26.45;10.98;;;;;;;;;;5059929;28;20036;-62
2022/03/13 00:32:03;;;;;;;20.20;10.88;;;;;;;;;;5058831;28;20117;-61
2022/03/13 00:34:28;;;;;;;21.65;11.98;;;;;;;;;;5067773;28;20094;-60
2022/03/13 00:36:54;;;;;;;19.25;10.43;;;;;;;;;;5056063;28;20025;-61
2022/03/13 00:39:20;;;;;;;22.20;10.63;;;;;;;;;;5063635;28;20020;-60
2022/03/13 00:41:46;;;;;;;21.63;9.75;;;;;;;;;;5062980;28;20115;-60
2022/03/13 00:44:12;;;;;;;20.52;10.80;;;;;;;;;;5057845;28;20044;-60
2022/03/13 00:46:38;;;;;;;19.98;9.73;;;;;;;;;;5057451;28;20132;-59
2022/03/13 00:49:04;;;;;;;18.15;9.40;;;;;;;;;;5068271;28;20116;-60
2022/03/13 00:51:29;;;;;;;22.40;10.15;;;;;;;;;;5062209;28;20424;-61
2022/03/13 00:53:55;;;;;;;19.58;9.57;;;;;;;;;;5062734;28;20020;-61
2022/03/13 00:56:20;;;;;;;21.75;9.65;;;;;;;;;;5064396;28;20091;-61
2022/03/13 00:58:46;;;;;;;19.30;9.68;;;;;;;;;;5056924;28;20523;-60
2022/03/13 01:01:11;;;;;;;18.20;9.25;;;;;;;;;;5060834;28;20195;-60
2022/03/13 01:03:37;;;;;;;17.90;9.27;;;;;;;;;;5065353;28;20028;-61
2022/03/13 01:06:07;;;;;;;18.95;9.93;;;;;;;;;;5057687;28;20029;-60
2022/03/13 01:08:33;;;;;;;21.88;10.45;;;;;;;;;;5056358;28;20033;-60
2022/03/13 01:11:01;;;;;;;19.25;9.25;;;;;;;;;;5059381;28;20040;-61
2022/03/13 01:13:27;;;;;;;19.02;8.65;;;;;;;;;;5060121;28;20075;-61
2022/03/13 01:16:10;;;;;;;19.77;9.23;;;;;;;;;;5058317;28;20033;-61
2022/03/13 01:18:39;;;;;;;18.80;8.40;;;;;;;;;;5052289;28;20489;-61
2022/03/13 01:21:05;;;;;;;17.60;9.85;;;;;;;;;;5067257;28;20037;-60
2022/03/13 01:23:30;;;;;;;18.67;8.75;;;;;;;;;;5062198;28;20066;-61
2022/03/13 01:26:21;;;;;;;16.23;8.45;;;;;;;;;;5062856;28;20049;-62
2022/03/13 01:28:48;;;;;;;17.65;9.05;;;;;;;;;;5063113;28;20039;-62
2022/03/13 01:31:13;;;;;;;20.02;9.43;;;;;;;;;;5056700;28;20029;-61
2022/03/13 01:33:39;;;;;;;18.88;8.57;;;;;;;;;;5052998;28;20033;-61
2022/03/13 01:36:05;;;;;;;16.25;8.10;;;;;;;;;;5056544;28;20039;-61
2022/03/13 01:38:32;;;;;;;16.83;8.85;;;;;;;;;;5063298;28;20028;-61
2022/03/13 01:40:58;;;;;;;16.80;9.15;;;;;;;;;;5060731;28;20086;-60
2022/03/13 01:43:25;;;;;;;18.48;8.73;;;;;;;;;;5056229;28;20373;-59
2022/03/13 01:45:51;;;;;;;18.02;8.35;;;;;;;;;;5065856;28;20411;-61
2022/03/13 01:48:17;;;;;;;14.93;8.35;;;;;;;;;;5064514;28;20146;-60
2022/03/13 01:50:42;;;;;;;18.80;8.73;;;;;;;;;;5057862;28;20460;-60
2022/03/13 01:53:08;;;;;;;17.10;8.18;;;;;;;;;;5061784;28;20405;-61
2022/03/13 01:55:33;;;;;;;16.60;8.57;;;;;;;;;;5066292;28;20020;-61
2022/03/13 01:57:58;;;;;;;18.27;8.40;;;;;;;;;;5062729;28;20115;-60
2022/03/13 02:00:25;;;;;;;17.60;8.57;;;;;;;;;;5059273;28;20491;-62
2022/03/13 02:02:51;;;;;;;21.02;9.43;;;;;;;;;;5059221;28;20081;-61
2022/03/13 02:05:36;;;;;;;16.65;8.90;;;;;;;;;;5057930;28;20506;-61
2022/03/13 02:08:11;;;;;;;16.33;8.35;;;;;;;;;;5058625;28;20391;-61
2022/03/13 02:10:36;;;;;;;17.02;8.77;;;;;;;;;;5057386;28;20036;-60
2022/03/13 02:13:02;;;;;;;20.38;9.65;;;;;;;;;;5056196;28;20024;-59
2022/03/13 02:15:30;;;;;;;18.60;9.55;;;;;;;;;;5060951;28;20036;-60
2022/03/13 02:17:56;;;;;;;21.55;10.32;;;;;;;;;;5057359;28;20036;-61
2022/03/13 02:20:26;;;;;;;22.27;9.30;;;;;;;;;;5058702;28;20256;-60
2022/03/13 02:22:52;;;;;;;;;;;;;;;;;;5063060;28;20100;-60
2022/03/13 02:25:22;;;;;;;20.85;8.57;;;;;;;;;;5057629;28;20406;-60
2022/03/13 02:27:48;;;;;;;19.40;8.57;;;;;;;;;;5058838;28;20033;-62
2022/03/13 02:30:13;;;;;;;18.70;9.27;;;;;;;;;;5060311;28;20043;-59
2022/03/13 02:32:39;;;;;;;20.55;9.25;;;;;;;;;;5058430;28;20028;-60
2022/03/13 02:35:05;;;;;;;15.88;8.85;;;;;;;;;;5059977;28;20033;-60
2022/03/13 02:37:37;;;;;;;19.20;9.00;;;;;;;;;;5058476;28;20565;-61
2022/03/13 02:40:06;;;;;;;20.00;9.70;;;;;;;;;;5058888;28;20023;-61
2022/03/13 02:42:32;;;;;;;20.48;9.55;;;;;;;;;;5062024;28;20024;-62
2022/03/13 02:44:57;;;;;;;18.15;8.48;;;;;;;;;;5063967;28;20468;-61
2022/03/13 02:47:23;;;;;;;18.40;8.95;;;;;;;;;;5064467;28;20031;-62
2022/03/13 02:49:48;;;;;;;19.35;8.65;;;;;;;;;;5060994;28;20042;-61
2022/03/13 02:52:14;;;;;;;20.42;8.98;;;;;;;;;;5062036;28;20112;-60
2022/03/13 02:54:39;;;;;;;19.05;8.98;;;;;;;;;;5059991;28;20389;-61
2022/03/13 02:57:05;;;;;;;16.73;8.90;;;;;;;;;;5055191;28;20155;-60
2022/03/13 02:59:30;;;;;;;20.55;9.45;;;;;;;;;;5061154;28;20132;-60
2022/03/13 03:01:58;;;;;;;17.83;8.95;;;;;;;;;;5053016;28;20033;-61
2022/03/13 03:04:24;;;;;;;21.20;9.35;;;;;;;;;;5062068;28;20032;-60
2022/03/13 03:07:01;;;;;;;18.58;9.52;;;;;;;;;;5055618;28;20128;-61
2022/03/13 03:09:32;;;;;;;20.05;9.35;;;;;;;;;;5037877;28;20021;-61
2022/03/13 03:11:59;;;;;;;20.23;9.18;;;;;;;;;;5060031;28;20287;-60
2022/03/13 03:14:24;;;;;;;19.60;9.25;;;;;;;;;;5062191;28;20069;-61
2022/03/13 03:16:50;;;;;;;21.48;9.10;;;;;;;;;;5064592;28;20028;-61
2022/03/13 03:19:15;;;;;;;21.35;9.85;;;;;;;;;;5057832;28;20024;-59
2022/03/13 03:21:42;;;;;;;20.27;9.13;;;;;;;;;;5065357;28;20028;-61
2022/03/13 03:24:18;;;;;;;17.27;9.13;;;;;;;;;;5060827;28;20028;-60
2022/03/13 03:26:43;;;;;;;20.70;10.13;;;;;;;;;;5058493;28;20447;-60
2022/03/13 03:29:09;;;;;;;20.77;9.73;;;;;;;;;;5062237;28;20089;-59
2022/03/13 03:31:39;;;;;;;22.05;9.40;;;;;;;;;;5055645;28;20031;-59
2022/03/13 03:34:08;;;;;;;20.35;9.63;;;;;;;;;;5058761;28;20345;-60
2022/03/13 03:36:39;;;;;;;21.38;10.50;;;;;;;;;;5056736;28;20024;-60
2022/03/13 03:39:06;;;;;;;21.23;10.25;;;;;;;;;;5060099;28;20106;-60
2022/03/13 03:41:32;;;;;;;20.92;10.52;;;;;;;;;;5062173;28;20047;-61
2022/03/13 03:43:57;;;;;;;21.77;9.75;;;;;;;;;;5060290;28;20476;-60
2022/03/13 03:46:24;;;;;;;25.40;10.60;;;;;;;;;;5059151;28;20146;-61
2022/03/13 03:48:50;;;;;;;22.52;10.05;;;;;;;;;;5059508;28;20106;-60
2022/03/13 03:51:15;;;;;;;23.85;10.30;;;;;;;;;;5060904;28;20487;-62
2022/03/13 03:53:40;;;;;;;23.73;10.75;;;;;;;;;;5056083;28;20029;-60
2022/03/13 03:56:06;;;;;;;22.13;11.20;;;;;;;;;;5058652;28;20025;-61
2022/03/13 03:58:31;;;;;;;22.00;10.52;;;;;;;;;;5061600;28;20112;-60
2022/03/13 04:00:57;;;;;;;25.08;11.27;;;;;;;;;;5058752;28;20044;-61
2022/03/13 04:03:22;;;;;;;27.35;11.52;;;;;;;;;;5063138;28;20025;-60
2022/03/13 04:05:48;;;;;;;24.17;10.88;;;;;;;;;;5058442;28;20025;-60
2022/03/13 04:08:13;;;;;;;24.80;11.15;;;;;;;;;;5059904;28;20028;-62
2022/03/13 04:10:39;;;;;;;23.38;10.73;;;;;;;;;;5062819;28;20035;-62
2022/03/13 04:13:04;;;;;;;22.77;10.60;;;;;;;;;;5067605;28;20434;-61
2022/03/13 04:15:30;;;;;;;23.88;10.18;;;;;;;;;;5068467;28;20029;-60
2022/03/13 04:17:55;;;;;;;23.77;10.45;;;;;;;;;;5055734;28;20468;-62
2022/03/13 04:20:21;;;;;;;24.73;11.65;;;;;;;;;;5068332;28;20041;-60
2022/03/13 04:22:47;;;;;;;28.95;11.02;;;;;;;;;;5066841;28;20055;-61
2022/03/13 04:25:12;;;;;;;18.95;10.70;;;;;;;;;;5067709;28;21294;-61
2022/03/13 04:27:38;;;;;;;26.70;11.82;;;;;;;;;;5066065;28;20060;-62
2022/03/13 04:30:04;;;;;;;23.58;10.90;;;;;;;;;;5066645;28;20089;-61
2022/03/13 04:32:31;;;;;;;28.38;10.90;;;;;;;;;;5065901;28;20031;-60
2022/03/13 04:34:56;;;;;;;22.98;10.75;;;;;;;;;;5056292;28;20033;-62
2022/03/13 04:37:22;;;;;;;22.92;10.65;;;;;;;;;;5067641;28;20029;-62
2022/03/13 04:39:51;;;;;;;26.10;11.50;;;;;;;;;;5058907;28;20025;-62
2022/03/13 04:42:17;;;;;;;24.65;11.02;;;;;;;;;;5060095;28;20032;-60
2022/03/13 04:44:44;;;;;;;25.83;10.52;;;;;;;;;;5062953;28;20040;-61
2022/03/13 04:47:09;;;;;;;25.80;11.57;;;;;;;;;;5063462;28;20028;-60
2022/03/13 04:49:35;;;;;;;26.95;11.50;;;;;;;;;;5058057;28;20507;-60
2022/03/13 04:52:00;;;;;;;25.80;10.25;;;;;;;;;;5063780;28;20061;-59
2022/03/13 04:54:26;;;;;;;22.90;10.25;;;;;;;;;;5065120;28;20036;-59
2022/03/13 04:56:51;;;;;;;24.30;10.57;;;;;;;;;;5063523;28;20028;-60
2022/03/13 04:59:16;;;;;;;22.42;10.57;;;;;;;;;;5065527;28;20024;-59
2022/03/13 05:01:42;;;;;;;23.85;10.88;;;;;;;;;;5068021;28;20032;-60
2022/03/13 05:04:08;;;;;;;27.40;10.88;;;;;;;;;;5059129;28;20059;-62
2022/03/13 05:06:40;;;;;;;26.77;11.65;;;;;;;;;;5052424;28;20472;-60
2022/03/13 05:09:07;;;;;;;25.52;10.40;;;;;;;;;;5059325;28;20043;-61
2022/03/13 05:11:32;;;;;;;23.80;10.65;;;;;;;;;;5060309;28;20187;-60
2022/03/13 05:13:58;;;;;;;23.33;10.80;;;;;;;;;;5058006;28;20132;-62
2022/03/13 05:16:23;;;;;;;26.83;11.73;;;;;;;;;;5055946;28;20025;-61
2022/03/13 05:18:49;;;;;;;33.28;11.77;;;;;;;;;;5065772;28;20103;-60
2022/03/13 05:21:14;;;;;;;26.13;11.50;;;;;;;;;;5066781;28;20581;-60
2022/03/13 05:23:40;;;;;;;27.38;11.98;;;;;;;;;;5059402;28;20115;-60
2022/03/13 05:26:05;;;;;;;25.80;11.02;;;;;;;;;;5056945;28;20032;-60
2022/03/13 05:28:31;;;;;;;28.48;12.60;;;;;;;;;;5062844;28;20028;-61
2022/03/13 05:30:56;;;;;;;25.15;11.70;;;;;;;;;;5064602;28;20075;-59
2022/03/13 05:33:22;;;;;;;29.80;12.25;;;;;;;;;;5061867;28;20506;-60
2022/03/13 05:35:47;;;;;;;26.45;11.65;;;;;;;;;;5061134;28;20081;-61
2022/03/13 05:38:13;;;;;;;24.60;11.40;;;;;;;;;;5055165;28;20031;-61
2022/03/13 05:40:40;;;;;;;27.30;11.70;;;;;;;;;;5058379;28;20380;-59
2022/03/13 05:43:06;;;;;;;28.75;12.35;;;;;;;;;;5053304;28;20043;-60
2022/03/13 05:45:32;;;;;;;26.25;11.40;;;;;;;;;;5059783;28;20017;-60
2022/03/13 05:48:00;;;;;;;32.80;11.85;;;;;;;;;;5066483;28;20506;-60
2022/03/13 05:50:27;;;;;;;30.67;12.68;;;;;;;;;;5060175;28;20032;-59
2022/03/13 05:52:55;;;;;;;29.92;13.38;;;;;;;;;;5059302;28;20376;-60
2022/03/13 05:55:21;;;;;;;31.13;13.45;;;;;;;;;;5060941;28;20020;-62
2022/03/13 05:57:46;;;;;;;30.83;12.15;;;;;;;;;;5059273;28;20037;-59
2022/03/13 06:00:14;;;;;;;31.02;13.02;;;;;;;;;;5058398;28;20032;-60
2022/03/13 06:02:40;;;;;;;32.08;13.40;;;;;;;;;;5058005;28;20491;-62
2022/03/13 06:05:08;;;;;;;37.08;16.52;;;;;;;;;;5060969;28;20110;-60
2022/03/13 06:07:34;;;;;;;34.75;14.75;;;;;;;;;;5060778;28;20102;-61
2022/03/13 06:10:03;;;;;;;32.88;13.27;;;;;;;;;;5059503;28;20032;-60
2022/03/13 06:12:31;;;;;;;29.25;11.85;;;;;;;;;;5061270;28;20117;-59
2022/03/13 06:14:58;;;;;;;32.22;14.35;;;;;;;;;;5057361;28;20047;-61
2022/03/13 06:17:24;;;;;;;33.13;14.07;;;;;;;;;;5058153;28;20081;-60
2022/03/13 06:19:50;;;;;;;36.72;16.05;;;;;;;;;;5063912;28;20103;-60
2022/03/13 06:22:17;;;;;;;36.20;16.08;;;;;;;;;;5054445;28;20182;-60
2022/03/13 06:24:43;;;;;;;32.42;15.10;;;;;;;;;;5062177;28;20025;-61
2022/03/13 06:27:10;;;;;;;33.40;14.95;;;;;;;;;;5060600;28;20353;-60
2022/03/13 06:29:36;;;;;;;37.72;14.85;;;;;;;;;;5059049;28;20133;-60
2022/03/13 06:32:02;;;;;;;29.55;12.65;;;;;;;;;;5062548;28;20025;-60
2022/03/13 06:34:28;;;;;;;39.13;16.27;;;;;;;;;;5065383;28;20494;-60
2022/03/13 06:36:53;;;;;;;37.65;14.63;;;;;;;;;;5058910;28;20028;-61
2022/03/13 06:39:19;;;;;;;34.60;14.75;;;;;;;;;;5066508;28;20058;-61
2022/03/13 06:41:44;;;;;;;34.33;14.88;;;;;;;;;;5062594;28;20534;-60
2022/03/13 06:44:10;;;;;;;37.40;15.07;;;;;;;;;;5062281;28;20023;-60
2022/03/13 06:46:35;;;;;;;32.75;13.75;;;;;;;;;;5060551;28;20101;-60
2022/03/13 06:49:05;;;;;;;35.25;14.85;;;;;;;;;;5059604;28;20542;-59
2022/03/13 06:51:31;;;;;;;40.55;16.20;;;;;;;;;;5059589;28;20035;-60
2022/03/13 06:53:57;;;;;;;38.85;16.15;;;;;;;;;;5063690;28;20373;-60
2022/03/13 06:56:23;;;;;;;35.20;15.70;;;;;;;;;;5059788;28;20107;-60
2022/03/13 06:58:48;;;;;;;32.13;13.95;;;;;;;;;;5054467;28;20033;-60
2022/03/13 07:01:14;;;;;;;33.53;14.00;;;;;;;;;;5060396;28;20063;-60
2022/03/13 07:03:39;;;;;;;33.75;13.35;;;;;;;;;;5056966;28;20028;-59
2022/03/13 07:06:05;;;;;;;42.55;17.05;;;;;;;;;;5054408;28;20025;-60
2022/03/13 07:08:34;;;;;;;29.75;14.10;;;;;;;;;;5055905;28;20035;-61
2022/03/13 07:11:01;;;;;;;34.83;13.27;;;;;;;;;;5050842;28;20064;-60
2022/03/13 07:13:33;;;;;;;35.70;15.05;;;;;;;;;;5056063;28;20395;-60
2022/03/13 07:16:05;;;;;;;36.72;14.15;;;;;;;;;;5052119;28;20063;-61
2022/03/13 07:18:31;;;;;;;31.17;14.95;;;;;;;;;;5058625;28;20557;-60
2022/03/13 07:20:57;;;;;;;34.75;14.23;;;;;;;;;;5064542;28;20032;-60
2022/03/13 07:23:22;;;;;;;37.17;15.05;;;;;;;;;;5064230;28;20020;-60
2022/03/13 07:25:49;;;;;;;37.28;15.15;;;;;;;;;;5062360;28;20047;-60
2022/03/13 07:28:15;;;;;;;40.85;15.45;;;;;;;;;;5061925;28;20055;-60
2022/03/13 07:30:41;;;;;;;43.92;18.92;;;;;;;;;;5061965;28;20125;-60
2022/03/13 07:33:06;;;;;;;42.30;19.80;;;;;;;;;;5068570;28;20170;-62
2022/03/13 07:35:31;;;;;;;56.38;22.70;;;;;;;;;;5071513;28;20027;-61
2022/03/13 07:37:57;;;;;;;55.60;23.88;;;;;;;;;;5067006;28;20419;-60
2022/03/13 07:40:22;;;;;;;47.00;20.98;;;;;;;;;;5063404;28;20027;-61
2022/03/13 07:42:48;;;;;;;44.35;18.77;;;;;;;;;;5068759;28;20032;-59
2022/03/13 07:45:14;;;;;;;42.17;17.23;;;;;;;;;;5069349;28;20009;-60
2022/03/13 07:47:39;;;;;;;39.72;17.58;;;;;;;;;;5064088;28;20032;-60
2022/03/13 07:50:06;;;;;;;35.55;14.93;;;;;;;;;;5066113;28;20098;-60
2022/03/13 07:52:31;;;;;;;46.58;15.98;;;;;;;;;;5067186;28;20028;-60
2022/03/13 07:54:56;;;;;;;49.50;18.13;;;;;;;;;;5064236;28;20373;-59
2022/03/13 07:57:22;;;;;;;42.85;17.98;;;;;;;;;;5071106;28;20498;-60
2022/03/13 07:59:47;;;;;;;43.85;16.42;;;;;;;;;;5060366;28;20087;-60
2022/03/13 08:02:14;;;;;;;40.80;16.77;;;;;;;;;;5062147;28;20028;-59
2022/03/13 08:04:41;;;;;;;40.45;17.40;;;;;;;;;;5062888;28;20024;-61
2022/03/13 08:07:06;;;;;;;37.90;16.75;;;;;;;;;;5064884;28;20122;-60
2022/03/13 08:09:34;;;;;;;38.50;15.55;;;;;;;;;;5065220;28;20041;-61
2022/03/13 08:11:59;;;;;;;37.88;15.75;;;;;;;;;;5062468;28;20113;-60
2022/03/13 08:14:25;;;;;;;42.15;17.15;;;;;;;;;;5063416;28;20480;-60
2022/03/13 08:16:50;;;;;;;39.45;16.35;;;;;;;;;;5068467;28;20513;-61
2022/03/13 08:19:16;;;;;;;39.80;16.52;;;;;;;;;;5069314;28;20033;-60
2022/03/13 08:21:42;;;;;;;37.60;15.35;;;;;;;;;;5069407;28;20400;-60
2022/03/13 08:24:07;;;;;;;43.65;17.15;;;;;;;;;;5070679;28;20024;-60
2022/03/13 08:26:38;;;;;;;39.13;16.20;;;;;;;;;;5064506;28;20028;-60
2022/03/13 08:29:06;;;;;;;37.70;16.30;;;;;;;;;;5057354;28;20052;-59
2022/03/13 08:31:33;;;;;;;41.85;16.80;;;;;;;;;;5066215;28;20036;-59
2022/03/13 08:34:00;;;;;;;35.35;15.60;;;;;;;;;;5065310;28;20404;-60
2022/03/13 08:36:25;;;;;;;40.30;16.48;;;;;;;;;;5068966;28;20028;-60
2022/03/13 08:38:52;;;;;;;41.22;18.35;;;;;;;;;;5068574;28;20036;-60
2022/03/13 08:41:18;;;;;;;39.00;16.80;;;;;;;;;;5064489;28;20064;-60
2022/03/13 08:43:43;;;;;;;37.15;16.15;;;;;;;;;;5065248;28;20063;-61
2022/03/13 08:46:12;;;;;;;37.40;16.50;;;;;;;;;;5067492;28;20115;-60
2022/03/13 08:48:37;;;;;;;40.50;16.63;;;;;;;;;;5060089;28;20044;-60
2022/03/13 08:51:03;;;;;;;33.65;15.43;;;;;;;;;;5064896;28;20455;-60
2022/03/13 08:53:28;;;;;;;39.17;16.77;;;;;;;;;;5066262;28;20028;-60
2022/03/13 08:55:54;;;;;;;49.17;20.65;;;;;;;;;;5057753;28;20179;-61
2022/03/13 08:58:19;;;;;;;40.58;17.15;;;;;;;;;;5060345;28;20021;-61
2022/03/13 09:00:45;;;;;;;39.22;17.23;;;;;;;;;;5054576;28;20053;-60
2022/03/13 09:03:10;;;;;;;37.08;17.50;;;;;;;;;;5063386;28;20053;-62
2022/03/13 09:05:36;;;;;;;39.45;17.58;;;;;;;;;;5054463;28;20029;-60
2022/03/13 09:08:02;;;;;;;37.72;17.48;;;;;;;;;;5058918;28;20024;-62
2022/03/13 09:10:28;;;;;;;38.80;17.10;;;;;;;;;;5059235;28;20021;-61
2022/03/13 09:12:53;;;;;;;38.03;19.38;;;;;;;;;;5060544;28;20403;-61
2022/03/13 09:15:19;;;;;;;38.90;17.92;;;;;;;;;;5057854;28;20035;-62
2022/03/13 09:17:53;;;;;;;40.67;17.05;;;;;;;;;;5063670;28;20041;-61
2022/03/13 09:20:18;;;;;;;35.83;16.95;;;;;;;;;;5058910;28;20487;-60
2022/03/13 09:22:44;;;;;;;39.55;18.08;;;;;;;;;;5061806;28;20115;-62
2022/03/13 09:25:09;;;;;;;39.47;17.50;;;;;;;;;;5059127;28;20020;-61
2022/03/13 09:27:35;;;;;;;39.13;18.00;;;;;;;;;;5065725;28;20402;-61
2022/03/13 09:30:00;;;;;;;42.97;20.52;;;;;;;;;;5061823;28;20111;-62
2022/03/13 09:32:26;;;;;;;37.53;19.77;;;;;;;;;;5065352;28;20557;-61
2022/03/13 09:34:53;;;;;;;36.13;19.05;;;;;;;;;;5062708;28;20087;-62
2022/03/13 09:37:20;;;;;;;39.05;18.63;;;;;;;;;;5059346;28;20020;-60
2022/03/13 09:39:46;;;;;;;38.35;18.15;;;;;;;;;;5060717;28;20119;-60
2022/03/13 09:42:12;;;;;;;34.88;18.33;;;;;;;;;;5062827;28;20099;-62
2022/03/13 09:44:37;;;;;;;33.10;17.90;;;;;;;;;;5059813;28;20021;-61
2022/03/13 09:47:03;;;;;;;32.75;17.60;;;;;;;;;;5059985;28;20051;-60
2022/03/13 09:49:28;;;;;;;33.10;16.73;;;;;;;;;;5059562;28;20378;-61
2022/03/13 09:51:54;;;;;;;37.22;20.48;;;;;;;;;;5063914;28;20506;-61
2022/03/13 09:54:19;;;;;;;32.25;18.00;;;;;;;;;;5057710;28;20428;-62
2022/03/13 09:56:45;;;;;;;33.10;18.95;;;;;;;;;;5057686;28;20064;-61
2022/03/13 09:59:11;;;;;;;31.83;17.98;;;;;;;;;;5054672;28;20028;-60
2022/03/13 10:01:36;;;;;;;30.77;17.73;;;;;;;;;;5054984;28;20056;-62
2022/03/13 10:04:04;;;;;;;35.85;19.10;;;;;;;;;;5060144;28;20025;-61
2022/03/13 10:06:29;;;;;;;37.00;18.48;;;;;;;;;;5053624;28;20055;-62
2022/03/13 10:08:55;;;;;;;33.40;18.50;;;;;;;;;;5057712;28;20083;-62
2022/03/13 10:11:34;;;;;;;32.22;18.38;;;;;;;;;;5053029;28;20027;-61
2022/03/13 10:14:10;;;;;;;37.25;19.88;;;;;;;;;;5064027;28;20131;-62
2022/03/13 10:16:38;;;;;;;33.05;18.88;;;;;;;;;;5065987;28;20067;-61
2022/03/13 10:19:18;;;;;;;35.72;20.58;;;;;;;;;;5058536;28;20024;-62
2022/03/13 10:22:07;;;;;;;39.03;20.85;;;;;;;;;;5055986;28;20064;-61
2022/03/13 10:24:46;;;;;;;38.05;20.77;;;;;;;;;;5054881;28;20402;-61
2022/03/13 10:27:13;;;;;;;34.90;19.75;;;;;;;;;;5054929;28;20033;-62
2022/03/13 10:29:40;;;;;;;35.90;20.58;;;;;;;;;;5055361;28;20021;-61
2022/03/13 10:32:06;;;;;;;30.23;17.60;;;;;;;;;;5065279;28;20034;-62
2022/03/13 10:34:32;;;;;;;31.17;16.30;;;;;;;;;;5061871;28;20091;-61
2022/03/13 10:36:58;;;;;;;34.20;18.13;;;;;;;;;;5062711;28;20440;-62
2022/03/13 10:39:24;;;;;;;30.23;16.80;;;;;;;;;;5059349;28;20052;-63
2022/03/13 10:42:01;;;;;;;31.75;16.52;;;;;;;;;;5057976;28;20352;-63
2022/03/13 10:44:33;;;;;;;29.80;17.13;;;;;;;;;;5060132;28;20506;-61
2022/03/13 10:47:02;;;;;;;34.85;18.58;;;;;;;;;;5061209;28;20039;-61
2022/03/13 10:49:42;;;;;;;31.05;18.58;;;;;;;;;;5057375;28;20025;-63
2022/03/13 10:52:26;;;;;;;;;;;;;;;;;;5055718;28;20576;-64
2022/03/13 10:54:53;;;;;;;34.83;17.42;;;;;;;;;;5062102;28;20334;-62
2022/03/13 10:57:19;;;;;;;33.83;17.70;;;;;;;;;;5055366;28;20036;-62
2022/03/13 10:59:45;;;;;;;33.15;17.98;;;;;;;;;;5066333;28;20028;-61
2022/03/13 11:02:21;;;;;;;33.80;16.92;;;;;;;;;;5054923;28;20027;-61
2022/03/13 11:04:57;;;;;;;32.78;18.40;;;;;;;;;;5056610;28;20135;-61
2022/03/13 11:07:26;;;;;;;36.88;20.20;;;;;;;;;;5056525;28;20020;-61
2022/03/13 11:09:52;;;;;;;34.60;19.98;;;;;;;;;;5058638;28;20024;-63
2022/03/13 11:12:22;;;;;;;34.70;18.55;;;;;;;;;;5059342;28;20047;-62
2022/03/13 11:14:50;;;;;;;36.70;20.52;;;;;;;;;;5063828;28;20106;-63
2022/03/13 11:17:27;;;;;;;34.85;18.65;;;;;;;;;;5063966;28;20022;-63
2022/03/13 11:19:57;;;;;;;37.70;20.67;;;;;;;;;;5061073;28;20056;-61
2022/03/13 11:22:23;;;;;;;35.13;19.65;;;;;;;;;;5060461;28;20054;-62
2022/03/13 11:24:54;;;;;;;40.78;20.95;;;;;;;;;;5058871;28;20451;-62
2022/03/13 11:27:21;;;;;;;43.30;20.92;;;;;;;;;;5057814;28;20025;-62
2022/03/13 11:29:47;;;;;;;39.50;20.60;;;;;;;;;;5061336;28;20029;-61
2022/03/13 11:32:34;;;;;;;35.47;19.48;;;;;;;;;;5060361;28;20111;-61
2022/03/13 11:35:18;;;;;;;40.38;21.58;;;;;;;;;;5063648;28;20022;-62
2022/03/13 11:37:48;;;;;;;39.03;21.98;;;;;;;;;;5058282;28;20032;-63
2022/03/13 11:40:17;;;;;;;36.13;21.33;;;;;;;;;;5056543;28;20025;-61
2022/03/13 11:42:49;;;;;;;;;;;;;;;;;;5057772;28;20107;-63
2022/03/13 11:45:36;;;;;;;39.97;22.40;;;;;;;;;;5056328;28;19943;-62
2022/03/13 11:48:09;;;;;;;40.97;22.73;;;;;;;;;;5063968;28;20115;-63
2022/03/13 11:50:59;;;;;;;42.70;23.08;;;;;;;;;;5061135;28;20024;-64
2022/03/13 11:53:26;;;;;;;37.08;21.65;;;;;;;;;;5059263;28;20059;-61
2022/03/13 11:55:57;;;;;;;40.90;22.73;;;;;;;;;;5056453;28;20087;-63
2022/03/13 11:58:42;;;;;;;43.58;22.42;;;;;;;;;;5055311;28;20035;-61
2022/03/13 12:01:10;;;;;;;41.17;21.00;;;;;;;;;;5052546;28;20057;-61
2022/03/13 12:03:35;;;;;;;38.83;21.88;;;;;;;;;;5064642;28;20025;-63
2022/03/13 12:06:02;;;;;;;43.42;22.40;;;;;;;;;;5063921;28;20024;-62
2022/03/13 12:09:03;;;;;;;40.58;21.85;;;;;;;;;;5061588;28;20039;-62
2022/03/13 12:11:50;;;;;;;45.80;22.77;;;;;;;;;;5039797;28;20036;-61
2022/03/13 12:14:18;;;;;;;42.72;21.55;;;;;;;;;;5054405;28;20396;-62
2022/03/13 12:16:45;;;;;;;44.92;22.73;;;;;;;;;;5060116;28;20111;-62
2022/03/13 12:19:12;;;;;;;40.53;22.92;;;;;;;;;;5061536;28;20028;-63
2022/03/13 12:21:43;;;;;;;42.38;24.27;;;;;;;;;;5063104;28;20537;-63
2022/03/13 12:24:15;;;;;;;43.75;23.38;;;;;;;;;;5067359;28;20395;-63
2022/03/13 12:26:50;;;;;;;43.20;23.65;;;;;;;;;;5065027;28;20537;-62
2022/03/13 12:29:17;;;;;;;41.53;22.52;;;;;;;;;;5064046;28;20115;-63
2022/03/13 12:31:48;;;;;;;42.08;22.08;;;;;;;;;;5065843;28;20032;-62
2022/03/13 12:34:23;;;;;;;39.28;21.77;;;;;;;;;;5063001;28;20392;-62
2022/03/13 12:36:49;;;;;;;38.15;21.55;;;;;;;;;;5065278;28;20025;-63
2022/03/13 12:39:16;;;;;;;46.17;23.63;;;;;;;;;;5060866;28;20487;-64
2022/03/13 12:41:44;;;;;;;42.00;22.25;;;;;;;;;;5067340;28;20060;-62
2022/03/13 12:44:12;;;;;;;40.90;22.50;;;;;;;;;;5063435;28;20048;-63
2022/03/13 12:46:39;;;;;;;39.00;22.42;;;;;;;;;;5064759;28;20036;-63
2022/03/13 12:49:07;;;;;;;43.05;22.75;;;;;;;;;;5058474;28;20553;-63
2022/03/13 12:51:38;;;;;;;39.10;22.27;;;;;;;;;;5053963;28;20115;-62
2022/03/13 12:54:14;;;;;;;40.83;23.13;;;;;;;;;;5054874;28;20051;-63
2022/03/13 12:56:47;;;;;;;39.85;22.90;;;;;;;;;;5057207;28;20503;-63
2022/03/13 12:59:29;;;;;;;37.88;22.02;;;;;;;;;;5052142;28;20039;-64
2022/03/13 13:02:14;;;;;;;41.03;21.75;;;;;;;;;;5056201;28;20052;-61
2022/03/13 13:04:43;;;;;;;42.13;22.85;;;;;;;;;;5063732;28;20052;-63
2022/03/13 13:07:11;;;;;;;39.33;22.52;;;;;;;;;;5059409;28;20487;-62
2022/03/13 13:09:40;;;;;;;41.42;22.60;;;;;;;;;;5056951;28;20037;-62
2022/03/13 13:12:09;;;;;;;40.17;23.02;;;;;;;;;;5065798;28;20502;-62
2022/03/13 13:14:36;;;;;;;40.33;23.85;;;;;;;;;;5063650;28;20476;-62
2022/03/13 13:17:10;;;;;;;41.45;23.92;;;;;;;;;;5064096;28;20024;-62
2022/03/13 13:19:41;;;;;;;36.63;21.50;;;;;;;;;;5065011;28;20163;-63
2022/03/13 13:22:10;;;;;;;40.47;22.90;;;;;;;;;;5066285;28;20025;-63
2022/03/13 13:24:46;;;;;;;42.22;23.10;;;;;;;;;;5064185;28;20119;-62
2022/03/13 13:27:36;;;;;;;42.58;23.38;;;;;;;;;;5063755;28;20376;-62
2022/03/13 13:30:41;;;;;;;46.17;23.95;;;;;;;;;;5063876;28;20047;-63
2022/03/13 13:33:10;;;;;;;41.30;24.08;;;;;;;;;;5001242;28;20021;-63
2022/03/13 13:35:46;;;;;;;38.45;22.90;;;;;;;;;;5004652;28;20030;-62
2022/03/13 13:38:19;;;;;;;40.20;23.95;;;;;;;;;;5037555;28;20039;-63
2022/03/13 13:40:57;;;;;;;41.55;23.30;;;;;;;;;;5063285;28;20063;-63
2022/03/13 13:43:41;;;;;;;38.75;22.65;;;;;;;;;;5057669;28;20515;-63
2022/03/13 13:46:09;;;;;;;40.38;23.38;;;;;;;;;;5060467;28;20028;-63
2022/03/13 13:48:50;;;;;;;39.15;22.85;;;;;;;;;;5061198;28;20064;-61
2022/03/13 13:51:28;;;;;;;41.28;23.38;;;;;;;;;;5058562;28;20135;-63
2022/03/13 13:54:08;;;;;;;39.78;22.35;;;;;;;;;;5055910;28;20509;-63
2022/03/13 13:56:54;;;;;;;41.47;24.15;;;;;;;;;;5056113;28;20055;-63
2022/03/13 13:59:20;;;;;;;41.05;22.98;;;;;;;;;;5052564;28;20025;-62
2022/03/13 14:01:47;;;;;;;38.55;22.92;;;;;;;;;;5057165;28;20082;-63
2022/03/13 14:04:13;;;;;;;39.33;23.35;;;;;;;;;;5052736;28;20024;-64
2022/03/13 14:06:40;;;;;;;45.40;24.52;;;;;;;;;;5055150;28;20035;-63
2022/03/13 14:09:06;;;;;;;45.72;24.75;;;;;;;;;;5061255;28;20024;-63
2022/03/13 14:11:35;;;;;;;38.67;22.55;;;;;;;;;;5065315;28;20088;-63
2022/03/13 14:14:03;;;;;;;38.70;22.63;;;;;;;;;;5064042;28;20033;-64
2022/03/13 14:16:30;;;;;;;39.38;21.33;;;;;;;;;;5065664;28;20028;-63
2022/03/13 14:18:55;;;;;;;38.30;22.13;;;;;;;;;;5058305;28;20086;-62
2022/03/13 14:21:21;;;;;;;40.17;22.30;;;;;;;;;;5065934;28;20017;-62
2022/03/13 14:23:46;;;;;;;36.28;21.48;;;;;;;;;;5055287;28;20024;-61
2022/03/13 14:26:12;;;;;;;37.47;22.42;;;;;;;;;;5065056;28;20416;-64